createdAt,value
2023-01-13T00:02:51.423Z,25.92
2023-01-13T00:05:31.501Z,22.38
2023-01-13T00:08:18.431Z,24.23
2023-01-13T00:11:05.466Z,21.42
2023-01-13T00:13:45.441Z,20.77
2023-01-13T00:16:32.474Z,23.50
2023-01-13T00:19:12.423Z,22.30
2023-01-13T00:21:59.435Z,26.33
2023-01-13T00:24:39.482Z,19.98
2023-01-13T00:27:26.431Z,23.85
2023-01-13T00:30:13.429Z,20.70
2023-01-13T00:33:00.495Z,21.17
2023-01-13T00:35:40.429Z,22.85
2023-01-13T00:38:20.937Z,24.27
2023-01-13T00:41:23.433Z,21.55
2023-01-13T00:44:03.888Z,19.73
2023-01-13T00:46:50.466Z,26.77
2023-01-13T00:49:30.892Z,22.88
2023-01-13T00:52:17.436Z,16.42
2023-01-13T00:54:57.947Z,25.15
2023-01-13T00:57:44.456Z,20.02
2023-01-13T01:00:24.918Z,20.17
2023-01-13T01:03:15.417Z,22.75
2023-01-13T01:06:03.483Z,29.13
2023-01-13T01:08:57.430Z,19.10
2023-01-13T01:11:44.436Z,27.10
2023-01-13T01:14:24.491Z,23.67
2023-01-13T01:17:11.479Z,22.75
2023-01-13T01:19:51.497Z,25.42
2023-01-13T01:22:38.425Z,19.73
2023-01-13T01:25:18.478Z,26.67
2023-01-13T01:28:05.434Z,25.67
2023-01-13T01:30:46.489Z,22.48
2023-01-13T01:33:34.425Z,21.50
2023-01-13T01:36:15.494Z,22.67
2023-01-13T01:39:04.450Z,20.40
2023-01-13T01:42:04.439Z,20.52
2023-01-13T01:45:06.430Z,20.90
2023-01-13T01:47:54.422Z,30.40
2023-01-13T01:50:35.648Z,33.58
2023-01-13T01:53:28.432Z,23.42
2023-01-13T01:56:10.635Z,24.33
2023-01-13T01:59:02.435Z,21.40
2023-01-13T02:01:50.518Z,25.40
2023-01-13T02:04:43.433Z,22.77
2023-01-13T02:07:37.431Z,26.38
2023-01-13T02:10:20.549Z,17.08
2023-01-13T02:13:11.421Z,24.77
2023-01-13T02:16:07.480Z,25.65
2023-01-13T02:19:04.740Z,27.48
2023-01-13T02:21:54.419Z,18.25
2023-01-13T02:25:00.479Z,26.65
2023-01-13T02:27:50.410Z,23.13
2023-01-13T02:31:20.464Z,25.15
2023-01-13T02:34:08.506Z,25.95
2023-01-13T02:37:09.421Z,27.80
2023-01-13T02:40:09.443Z,23.58
2023-01-13T02:43:24.419Z,20.88
2023-01-13T02:46:41.421Z,24.52
2023-01-13T02:49:41.456Z,31.10
2023-01-13T02:52:34.510Z,29.83
2023-01-13T02:55:22.442Z,21.08
2023-01-13T02:58:06.212Z,23.88
2023-01-13T03:00:53.469Z,25.55
2023-01-13T03:03:33.937Z,22.42
2023-01-13T03:07:05.392Z,23.23
2023-01-13T03:10:21.397Z,22.92
2023-01-13T03:13:33.387Z,23.10
2023-01-13T03:16:47.484Z,17.90
2023-01-13T03:20:05.392Z,26.73
2023-01-13T03:23:17.454Z,26.58
2023-01-13T03:26:35.370Z,25.27
2023-01-13T03:32:14.380Z,22.92
2023-01-13T03:34:59.431Z,22.73
2023-01-13T03:37:50.604Z,22.42
2023-01-13T03:40:36.458Z,22.20
2023-01-13T03:43:49.401Z,23.50
2023-01-13T03:46:57.410Z,22.33
2023-01-13T03:50:08.195Z,20.52
2023-01-13T03:53:03.382Z,21.92
2023-01-13T03:55:55.932Z,19.13
2023-01-13T03:58:47.375Z,16.52
2023-01-13T04:02:00.728Z,18.20
2023-01-13T04:04:56.377Z,19.95
2023-01-13T04:08:23.092Z,17.17
2023-01-13T04:11:22.391Z,21.83
2023-01-13T04:14:11.392Z,23.52
2023-01-13T04:16:51.449Z,15.25
2023-01-13T04:19:39.407Z,17.42
2023-01-13T04:22:19.453Z,10.65
2023-01-13T04:25:06.514Z,15.85
2023-01-13T04:27:46.455Z,19.23
2023-01-13T04:30:33.375Z,13.75
2023-01-13T04:33:14.463Z,14.57
2023-01-13T04:36:01.394Z,14.77
2023-01-13T04:38:41.436Z,11.25
2023-01-13T04:41:28.390Z,14.15
2023-01-13T04:44:08.455Z,11.02
2023-01-13T04:46:55.402Z,7.68
2023-01-13T04:49:35.459Z,13.93
2023-01-13T04:52:22.400Z,11.60
2023-01-13T04:55:02.461Z,12.65
2023-01-13T04:57:50.399Z,9.93
2023-01-13T05:00:30.543Z,9.45
2023-01-13T05:03:17.399Z,12.93
2023-01-13T05:05:58.444Z,10.30
2023-01-13T05:08:45.394Z,9.18
2023-01-13T05:11:51.039Z,8.27
2023-01-13T05:14:49.390Z,10.38
2023-01-13T05:17:37.438Z,10.60
2023-01-13T05:20:18.403Z,13.57
2023-01-13T05:23:17.457Z,10.93
2023-01-13T05:26:04.397Z,16.63
2023-01-13T05:28:44.882Z,7.85
2023-01-13T05:31:31.457Z,17.00
2023-01-13T05:34:11.881Z,10.18
2023-01-13T05:36:58.384Z,9.25
2023-01-13T05:40:05.153Z,13.98
2023-01-13T05:43:03.385Z,18.92
2023-01-13T05:45:43.898Z,12.90
2023-01-13T05:48:32.383Z,14.27
2023-01-13T05:51:22.474Z,15.07
2023-01-13T05:54:02.388Z,12.48
2023-01-13T05:56:49.436Z,15.63
2023-01-13T05:59:29.393Z,13.13
2023-01-13T06:02:16.393Z,13.65
2023-01-13T06:04:56.461Z,14.43
2023-01-13T06:07:43.401Z,11.43
2023-01-13T06:10:31.492Z,19.40
2023-01-13T06:13:12.404Z,16.92
2023-01-13T06:16:03.536Z,16.15
2023-01-13T06:18:43.404Z,16.67
2023-01-13T06:21:23.869Z,13.35
2023-01-13T06:24:12.406Z,11.90
2023-01-13T06:26:53.016Z,14.13
2023-01-13T06:29:39.395Z,17.60
2023-01-13T06:32:32.401Z,15.88
2023-01-13T06:35:17.435Z,15.35
2023-01-13T06:38:00.413Z,20.15
2023-01-13T06:41:02.379Z,17.60
2023-01-13T06:43:42.908Z,16.52
2023-01-13T06:46:29.418Z,14.02
2023-01-13T06:49:16.404Z,16.90
2023-01-13T06:52:03.401Z,13.48
2023-01-13T06:54:50.403Z,14.27
2023-01-13T06:57:31.469Z,13.35
2023-01-13T07:00:19.396Z,17.30
2023-01-13T07:02:59.461Z,17.38
2023-01-13T07:05:47.387Z,9.00
2023-01-13T07:08:35.392Z,12.23
2023-01-13T07:11:29.397Z,9.80
2023-01-13T07:14:35.387Z,9.77
2023-01-13T07:17:15.462Z,13.93
2023-01-13T07:20:02.378Z,9.00
2023-01-13T07:22:42.467Z,14.73
2023-01-13T07:25:30.403Z,8.88
2023-01-13T07:28:10.522Z,11.27
2023-01-13T07:30:57.398Z,8.27
2023-01-13T07:33:37.432Z,11.40
2023-01-13T07:36:24.389Z,12.30
2023-01-13T07:39:04.496Z,9.40
2023-01-13T07:42:10.408Z,12.50
2023-01-13T07:44:50.465Z,11.82
2023-01-13T07:47:37.383Z,13.15
2023-01-13T07:50:17.444Z,10.73
2023-01-13T07:53:05.399Z,7.55
2023-01-13T07:55:56.417Z,12.23
2023-01-13T07:58:44.419Z,10.63
2023-01-13T08:01:27.981Z,12.10
2023-01-13T08:04:14.404Z,8.18
2023-01-13T08:07:01.390Z,12.73
2023-01-13T08:09:55.417Z,9.98
2023-01-13T08:13:01.386Z,11.25
2023-01-13T08:15:41.509Z,10.80
2023-01-13T08:18:29.400Z,9.63
2023-01-13T08:21:12.798Z,9.48
2023-01-13T08:24:06.404Z,10.73
2023-01-13T08:26:46.951Z,11.40
2023-01-13T08:29:33.386Z,11.95
2023-01-13T08:32:20.395Z,9.85
2023-01-13T08:35:07.430Z,10.00
2023-01-13T08:37:48.760Z,10.75
2023-01-13T08:40:35.434Z,8.05
2023-01-13T08:43:22.404Z,12.75
2023-01-13T08:48:53.890Z,12.20
2023-01-13T08:51:40.396Z,12.73
2023-01-13T08:54:28.410Z,11.95
2023-01-13T08:57:08.563Z,8.05
2023-01-13T08:59:55.419Z,8.70
2023-01-13T09:02:35.547Z,9.60
2023-01-13T09:05:22.379Z,12.32
2023-01-13T09:08:09.394Z,12.18
2023-01-13T09:13:36.422Z,13.15
2023-01-13T09:16:23.528Z,13.43
2023-01-13T09:19:03.430Z,10.77
2023-01-13T09:21:43.922Z,14.10
2023-01-13T09:24:30.388Z,10.98
2023-01-13T09:29:58.406Z,10.55
2023-01-13T09:32:38.930Z,14.07
2023-01-13T09:35:25.391Z,14.43
2023-01-13T09:38:06.894Z,10.23
2023-01-13T09:40:54.404Z,9.05
2023-01-13T09:43:54.713Z,9.82
2023-01-13T09:46:51.409Z,9.52
2023-01-13T09:49:44.400Z,12.48
2023-01-13T09:52:35.413Z,11.73
2023-01-13T09:55:19.699Z,15.57
2023-01-13T09:58:08.669Z,8.68
2023-01-13T10:01:23.691Z,13.18
2023-01-13T10:04:09.389Z,12.02
2023-01-13T10:07:05.405Z,12.05
2023-01-13T10:10:09.128Z,11.45
2023-01-13T10:13:15.411Z,8.48
2023-01-13T10:16:17.442Z,12.98
2023-01-13T10:19:10.645Z,9.90
2023-01-13T10:22:43.411Z,12.20
2023-01-13T10:25:56.435Z,11.77
2023-01-13T10:28:36.464Z,10.65
2023-01-13T10:31:24.507Z,12.05
2023-01-13T10:34:06.473Z,13.65
2023-01-13T10:37:14.424Z,10.43
2023-01-13T10:39:55.745Z,12.77
2023-01-13T10:45:32.462Z,15.00
2023-01-13T10:48:21.400Z,11.93
2023-01-13T10:51:08.417Z,14.27
2023-01-13T10:56:42.439Z,11.23
2023-01-13T10:59:33.405Z,11.52
2023-01-13T11:02:32.537Z,12.25
2023-01-13T11:05:29.428Z,15.10
2023-01-13T11:08:09.452Z,11.27
2023-01-13T11:10:59.495Z,16.20
2023-01-13T11:14:12.404Z,8.93
2023-01-13T11:17:05.643Z,10.80
2023-01-13T11:19:50.403Z,11.02
2023-01-13T11:22:52.928Z,12.02
2023-01-13T11:25:52.423Z,11.75
2023-01-13T11:29:09.421Z,12.52
2023-01-13T11:31:55.482Z,11.88
2023-01-13T11:34:45.424Z,9.90
2023-01-13T11:37:32.477Z,9.63
2023-01-13T11:43:06.486Z,15.13
2023-01-13T11:46:00.406Z,11.50
2023-01-13T11:48:51.429Z,8.88
2023-01-13T11:51:55.424Z,9.32
2023-01-13T11:54:46.064Z,11.07
2023-01-13T11:57:59.418Z,9.20
2023-01-13T12:00:47.460Z,11.15
2023-01-13T12:03:52.423Z,8.20
2023-01-13T12:06:46.066Z,10.48
2023-01-13T12:10:15.445Z,8.80
2023-01-13T12:15:59.422Z,8.50
2023-01-13T12:18:49.487Z,10.95
2023-01-13T12:21:43.421Z,9.32
2023-01-13T12:24:44.518Z,10.40
2023-01-13T12:27:47.448Z,9.00
2023-01-13T12:30:44.403Z,7.13
2023-01-13T12:33:58.702Z,7.57
2023-01-13T12:36:51.417Z,9.23
2023-01-13T12:39:47.412Z,9.20
2023-01-13T12:43:03.427Z,7.60
2023-01-13T12:45:50.429Z,11.55
2023-01-13T12:48:59.588Z,6.57
2023-01-13T12:51:58.420Z,7.78
2023-01-13T12:54:47.485Z,9.93
2023-01-13T12:57:39.415Z,7.15
2023-01-13T13:00:20.506Z,9.43
2023-01-13T13:03:22.428Z,9.98
2023-01-13T13:06:10.776Z,9.38
2023-01-13T13:08:57.434Z,10.63
2023-01-13T13:14:46.471Z,11.57
2023-01-13T13:17:36.481Z,9.48
2023-01-13T13:20:57.431Z,9.13
2023-01-13T13:23:55.419Z,13.13
2023-01-13T13:26:45.704Z,10.70
2023-01-13T13:29:47.418Z,14.73
2023-01-13T13:32:52.504Z,7.03
2023-01-13T13:35:51.438Z,9.75
2023-01-13T13:39:12.339Z,8.23
2023-01-13T13:42:26.424Z,9.93
2023-01-13T13:45:33.426Z,10.90
2023-01-13T13:48:37.436Z,6.40
2023-01-13T13:51:49.520Z,9.77
2023-01-13T13:54:37.487Z,11.20
2023-01-13T13:57:40.026Z,5.95
2023-01-13T14:00:35.500Z,9.57
2023-01-13T14:03:43.429Z,9.75
2023-01-13T14:06:24.353Z,9.57
2023-01-13T14:09:11.447Z,9.32
2023-01-13T14:12:04.517Z,8.18
2023-01-13T14:14:49.404Z,5.57
2023-01-13T14:17:37.375Z,9.15
2023-01-13T14:20:24.445Z,7.45
2023-01-13T14:25:57.572Z,9.02
2023-01-13T14:28:46.387Z,6.60
2023-01-13T14:31:27.465Z,8.43
2023-01-13T14:34:32.357Z,7.82
2023-01-13T14:37:54.333Z,8.77
2023-01-13T14:40:46.390Z,8.65
2023-01-13T14:43:31.400Z,7.68
2023-01-13T14:46:19.433Z,10.05
2023-01-13T14:49:06.585Z,7.13
2023-01-13T14:51:53.369Z,6.82
2023-01-13T14:57:48.359Z,8.20
2023-01-13T15:00:39.385Z,8.02
2023-01-13T15:03:21.625Z,7.97
2023-01-13T15:06:08.357Z,6.30
2023-01-13T15:11:49.352Z,9.57
2023-01-13T15:14:34.769Z,8.60
2023-01-13T15:17:29.351Z,8.77
2023-01-13T15:20:20.474Z,9.15
2023-01-13T15:23:03.329Z,12.73
2023-01-13T15:25:44.872Z,6.18
2023-01-13T15:28:34.340Z,8.43
2023-01-13T15:31:22.495Z,8.52
2023-01-13T15:34:02.358Z,7.13
2023-01-13T15:36:42.919Z,9.30
2023-01-13T15:39:29.397Z,10.45
2023-01-13T15:42:31.314Z,6.95
2023-01-13T15:45:36.358Z,9.60
2023-01-13T15:48:23.429Z,9.40
2023-01-13T15:51:03.352Z,8.93
2023-01-13T15:53:50.409Z,7.57
2023-01-13T15:56:33.363Z,7.03
2023-01-13T15:59:18.999Z,7.47
2023-01-13T16:02:05.335Z,10.10
2023-01-13T16:07:39.483Z,7.38
2023-01-13T16:10:40.369Z,5.97
2023-01-13T16:13:27.357Z,7.78
2023-01-13T16:16:14.426Z,8.55
2023-01-13T16:19:01.355Z,8.75
2023-01-13T16:24:28.379Z,7.72
2023-01-13T16:29:56.397Z,7.53
2023-01-13T16:32:43.390Z,7.93
2023-01-13T16:38:11.475Z,6.45
2023-01-13T16:40:58.407Z,10.50
2023-01-13T16:43:45.446Z,9.95
2023-01-13T16:49:13.415Z,6.22
2023-01-13T16:52:00.430Z,9.77
2023-01-13T16:54:41.028Z,7.75
2023-01-13T16:57:27.436Z,7.72
2023-01-13T17:00:11.190Z,7.70
2023-01-13T17:02:57.435Z,10.18
2023-01-13T17:05:47.434Z,9.60
2023-01-13T17:08:34.454Z,9.43
2023-01-13T17:14:01.421Z,7.95
2023-01-13T17:17:05.440Z,8.10
2023-01-13T17:19:52.426Z,11.80
2023-01-13T17:22:32.928Z,8.55
2023-01-13T17:25:20.439Z,7.15
2023-01-13T17:28:00.958Z,6.70
2023-01-13T17:30:48.451Z,8.65
2023-01-13T17:33:37.136Z,6.00
2023-01-13T17:36:16.439Z,7.13
2023-01-13T17:39:03.480Z,7.50
2023-01-13T17:41:43.445Z,5.03
2023-01-13T17:44:30.435Z,8.18
2023-01-13T17:47:17.461Z,5.57
2023-01-13T17:49:57.938Z,6.97
2023-01-13T17:52:44.436Z,6.00
2023-01-13T17:55:31.469Z,5.40
2023-01-13T17:58:11.480Z,4.53
2023-01-13T18:00:58.514Z,7.30
2023-01-13T18:03:38.511Z,8.52
2023-01-13T18:06:28.452Z,4.72
2023-01-13T18:09:08.570Z,6.25
2023-01-13T18:11:55.427Z,5.47
2023-01-13T18:14:35.530Z,5.15
2023-01-13T18:17:23.432Z,7.07
2023-01-13T18:20:22.397Z,6.43
2023-01-13T18:23:28.430Z,4.53
2023-01-13T18:26:50.443Z,5.57
2023-01-13T18:29:37.493Z,5.43
2023-01-13T18:35:07.205Z,6.22
2023-01-13T18:37:47.494Z,5.60
2023-01-13T18:40:34.431Z,6.22
2023-01-13T18:46:01.957Z,5.72
2023-01-13T18:48:48.440Z,6.25
2023-01-13T18:54:15.440Z,6.18
2023-01-13T18:56:57.043Z,9.02
2023-01-13T18:59:43.444Z,10.70
2023-01-13T19:02:26.316Z,6.35
2023-01-13T19:05:13.455Z,7.72
2023-01-13T19:08:00.952Z,8.52
2023-01-13T19:10:54.427Z,8.35
2023-01-13T19:13:35.851Z,7.15
2023-01-13T19:16:22.431Z,11.52
2023-01-13T19:19:03.095Z,8.20
2023-01-13T19:21:49.437Z,8.85
2023-01-13T19:24:36.449Z,9.25
2023-01-13T19:27:17.584Z,8.95
2023-01-13T19:32:53.450Z,9.88
2023-01-13T19:35:43.438Z,6.93
2023-01-13T19:38:23.511Z,10.13
2023-01-13T19:41:17.435Z,7.60
2023-01-13T19:44:16.152Z,10.95
2023-01-13T19:47:03.445Z,10.98
2023-01-13T19:49:43.479Z,10.38
2023-01-13T19:52:31.464Z,8.93
2023-01-13T19:55:12.302Z,10.85
2023-01-13T20:00:46.967Z,8.02
2023-01-13T20:03:37.449Z,6.47
2023-01-13T20:06:17.516Z,11.18
2023-01-13T20:09:04.434Z,13.57
2023-01-13T20:11:45.587Z,8.68
2023-01-13T20:17:19.443Z,8.40
2023-01-13T20:19:59.944Z,7.43
2023-01-13T20:22:46.441Z,7.18
2023-01-13T20:25:41.493Z,10.88
2023-01-13T20:28:28.431Z,8.02
2023-01-13T20:31:12.559Z,8.77
2023-01-13T20:33:59.449Z,7.65
2023-01-13T20:36:50.462Z,5.72
2023-01-13T20:39:44.449Z,9.27
2023-01-13T20:42:31.952Z,6.93
2023-01-13T20:45:21.464Z,5.00
2023-01-13T20:48:01.947Z,6.28
2023-01-13T20:50:48.447Z,10.65
2023-01-13T20:53:35.454Z,9.43
2023-01-13T20:56:16.523Z,8.75
2023-01-13T20:59:03.450Z,9.73
2023-01-13T21:01:51.466Z,10.40
2023-01-13T21:04:38.439Z,7.47
2023-01-13T21:07:25.432Z,10.02
2023-01-13T21:10:06.476Z,7.75
2023-01-13T21:15:58.565Z,8.43
2023-01-13T21:21:38.064Z,11.52
2023-01-13T21:24:24.445Z,8.63
2023-01-13T21:27:05.095Z,12.15
2023-01-13T21:29:51.465Z,13.30
2023-01-13T21:32:38.499Z,9.63
2023-01-13T21:35:19.470Z,12.10
2023-01-13T21:40:46.441Z,12.15
2023-01-13T21:43:45.524Z,7.00
2023-01-13T21:46:51.452Z,10.32
2023-01-13T21:49:31.983Z,11.55
2023-01-13T21:52:18.453Z,10.35
2023-01-13T21:55:17.408Z,10.77
2023-01-13T21:58:00.455Z,12.45
2023-01-13T22:00:43.299Z,10.38
2023-01-13T22:03:29.448Z,10.23
2023-01-13T22:06:16.549Z,11.40
2023-01-13T22:08:56.476Z,12.18
2023-01-13T22:11:50.467Z,11.18
2023-01-13T22:14:37.468Z,9.88
2023-01-13T22:17:27.461Z,10.95
2023-01-13T22:20:12.064Z,10.07
2023-01-13T22:22:59.468Z,8.10
2023-01-13T22:25:39.960Z,14.90
2023-01-13T22:28:30.472Z,14.20
2023-01-13T22:31:19.494Z,10.32
2023-01-13T22:34:02.591Z,12.90
2023-01-13T22:36:49.458Z,10.85
2023-01-13T22:39:29.528Z,13.05
2023-01-13T22:42:16.457Z,13.18
2023-01-13T22:44:56.506Z,8.32
2023-01-13T22:47:43.474Z,8.88
2023-01-13T22:50:23.569Z,9.43
2023-01-13T22:53:10.509Z,10.93
2023-01-13T22:55:50.503Z,13.13
2023-01-13T22:58:37.443Z,8.10
2023-01-13T23:01:20.623Z,7.18
2023-01-13T23:04:08.530Z,10.40
2023-01-13T23:06:48.514Z,8.02
2023-01-13T23:09:36.449Z,12.70
2023-01-13T23:12:23.464Z,12.60
2023-01-13T23:15:11.464Z,16.52
2023-01-13T23:17:54.561Z,13.55
2023-01-13T23:20:41.456Z,9.82
2023-01-13T23:23:30.449Z,11.50
2023-01-13T23:26:12.021Z,13.73
2023-01-13T23:31:46.469Z,12.90
2023-01-13T23:34:33.458Z,11.45
2023-01-13T23:37:20.521Z,13.07
2023-01-13T23:40:00.458Z,10.93
2023-01-13T23:42:47.458Z,12.35
2023-01-13T23:45:27.537Z,10.57
2023-01-13T23:48:14.467Z,10.85
2023-01-13T23:51:04.534Z,10.13
2023-01-13T23:53:53.466Z,11.70
2023-01-13T23:56:45.441Z,11.90
2023-01-13T23:59:25.957Z,11.13
